Portada
METAR-TAF:

METAR-TAF

Aeropuertos :

Kalaleh, Irán

latitud: 37-22-60N, longitud: 55-27-07E, altitud: 130 m

Observación

El informe se hizo hace 16 minutos, a las 09:00 UTC
Viento 4 kt del oeste-suroeste
Temperatura 16°C
Humedad 94%
Presión 1019 hPa
Visibilidad: 6000 m
Cielo nuboso a una altura de 1500 ft
Cielo cubierto a una altura de 8000 ft
llovizna ligera

METAR: OINE 080900Z 24004KT 6000 -DZ BKN015 OVC080 16/15 Q1019

Hora: 13:46 (09:16 UTC)


TAF: falta

Observaciones y pronósticos meteorológicos de más de 4000 aeropuertos (mensajes METAR y TAF).

Los puntos amarillos y rojos representan las estaciones disponibles.

Ponga el ratón en el punto deseado para ver el nombre de la estación.

Haga clic para ver las observaciones y los pronósticos meteorológicos.

Para cambiar el mapa : haga clic en los botones verdes con una cruz de color negro para hacer un zoom, en el botón verde con un guión para alejar o en las flechas verdes para mapas adyacentes.


METAR-TAF: